createdAt,value
2022-09-11T00:00:57.481Z,83.05
2022-09-11T00:03:28.244Z,83.17
2022-09-11T00:05:55.228Z,83.20
2022-09-11T00:08:22.416Z,83.14
2022-09-11T00:10:50.004Z,83.20
2022-09-11T00:13:21.528Z,83.18
2022-09-11T00:15:52.447Z,83.05
2022-09-11T00:18:23.746Z,83.08
2022-09-11T00:20:55.133Z,82.93
2022-09-11T00:23:23.773Z,82.98
2022-09-11T00:25:51.187Z,82.96
2022-09-11T00:28:23.777Z,82.87
2022-09-11T00:31:01.695Z,82.85
2022-09-11T00:33:29.471Z,82.81
2022-09-11T00:35:59.077Z,82.74
2022-09-11T00:38:28.196Z,82.64
2022-09-11T00:40:58.343Z,82.38
2022-09-11T00:43:27.323Z,82.40
2022-09-11T00:46:01.397Z,82.11
2022-09-11T00:48:34.150Z,82.19
2022-09-11T00:51:03.945Z,82.20
2022-09-11T00:53:35.511Z,82.29
2022-09-11T00:56:07.009Z,82.32
2022-09-11T00:58:38.282Z,82.39
2022-09-11T01:01:05.722Z,82.41
2022-09-11T01:03:32.587Z,82.23
2022-09-11T01:05:59.997Z,82.20
2022-09-11T01:08:28.502Z,82.18
2022-09-11T01:11:04.316Z,82.21
2022-09-11T01:13:55.069Z,82.22
2022-09-11T01:16:49.325Z,82.23
2022-09-11T01:19:37.753Z,82.06
2022-09-11T01:22:17.332Z,82.29
2022-09-11T01:25:21.543Z,81.97
2022-09-11T01:27:51.862Z,81.94
2022-09-11T01:30:24.438Z,82.20
2022-09-11T01:33:22.964Z,82.17
2022-09-11T01:35:52.931Z,82.33
2022-09-11T01:38:41.182Z,81.93
2022-09-11T01:41:40.630Z,81.86
2022-09-11T01:44:28.916Z,81.86
2022-09-11T01:46:56.409Z,81.91
2022-09-11T01:49:36.416Z,81.82
2022-09-11T01:52:09.408Z,81.65
2022-09-11T01:54:42.960Z,81.68
2022-09-11T01:57:16.140Z,81.87
2022-09-11T01:59:52.598Z,81.65
2022-09-11T02:02:27.255Z,81.43
2022-09-11T02:05:04.368Z,81.46
2022-09-11T02:07:36.545Z,81.33
2022-09-11T02:10:10.231Z,81.20
2022-09-11T02:12:43.949Z,81.35
2022-09-11T02:15:13.757Z,81.17
2022-09-11T02:17:54.008Z,81.24
2022-09-11T02:20:26.625Z,81.21
2022-09-11T02:22:53.524Z,81.11
2022-09-11T02:25:20.570Z,80.91
2022-09-11T02:27:47.996Z,80.72
2022-09-11T02:30:14.935Z,80.85
2022-09-11T02:32:43.940Z,80.83
2022-09-11T02:35:11.789Z,80.74
2022-09-11T02:37:46.219Z,80.73
2022-09-11T02:40:55.686Z,80.58
2022-09-11T02:43:46.787Z,80.63
2022-09-11T02:46:48.759Z,80.52
2022-09-11T02:49:27.257Z,80.66
2022-09-11T02:52:13.411Z,80.65
2022-09-11T02:54:40.256Z,80.58
2022-09-11T02:57:15.845Z,80.42
2022-09-11T02:59:49.825Z,80.46
2022-09-11T03:02:19.203Z,79.88
2022-09-11T03:04:48.554Z,80.05
2022-09-11T03:07:16.201Z,80.55
2022-09-11T03:09:43.300Z,80.40
2022-09-11T03:12:16.700Z,80.12
2022-09-11T03:14:48.671Z,79.72
2022-09-11T03:17:16.961Z,80.01
2022-09-11T03:19:43.903Z,79.76
2022-09-11T03:22:10.842Z,79.52
2022-09-11T03:24:39.653Z,79.77
2022-09-11T03:27:07.566Z,79.62
2022-09-11T03:29:35.147Z,79.33
2022-09-11T03:32:02.359Z,79.37
2022-09-11T03:34:29.950Z,79.31
2022-09-11T03:36:56.823Z,79.30
2022-09-11T03:39:24.560Z,79.64
2022-09-11T03:41:51.513Z,79.07
2022-09-11T03:44:18.270Z,79.60
2022-09-11T03:46:45.153Z,79.58
2022-09-11T03:49:11.976Z,79.20
2022-09-11T03:51:38.867Z,79.44
2022-09-11T03:54:05.756Z,79.13
2022-09-11T03:56:32.690Z,78.98
2022-09-11T03:59:02.972Z,79.33
2022-09-11T04:01:31.131Z,78.90
2022-09-11T04:03:58.231Z,79.05
2022-09-11T04:06:33.738Z,79.30
2022-09-11T04:09:01.415Z,79.08
2022-09-11T04:11:28.403Z,79.21
2022-09-11T04:13:56.055Z,79.17
2022-09-11T04:16:26.038Z,78.79
2022-09-11T04:18:55.637Z,79.00
2022-09-11T04:21:23.848Z,79.03
2022-09-11T04:23:56.535Z,78.82
2022-09-11T04:26:31.151Z,78.48
2022-09-11T04:29:18.944Z,78.37
2022-09-11T04:31:46.758Z,78.72
2022-09-11T04:34:15.141Z,78.45
2022-09-11T04:36:41.945Z,78.35
2022-09-11T04:39:13.192Z,77.96
2022-09-11T04:41:40.315Z,77.68
2022-09-11T04:44:07.081Z,77.73
2022-09-11T04:46:41.213Z,78.09
2022-09-11T04:49:10.799Z,78.37
2022-09-11T04:51:40.599Z,78.19
2022-09-11T04:54:18.050Z,78.14
2022-09-11T04:56:45.853Z,77.94
2022-09-11T04:59:19.570Z,77.98
2022-09-11T05:02:07.932Z,78.04
2022-09-11T05:04:38.968Z,78.21
2022-09-11T05:07:06.087Z,78.06
2022-09-11T05:09:32.875Z,77.95
2022-09-11T05:11:59.772Z,77.90
2022-09-11T05:14:32.770Z,77.85
2022-09-11T05:17:02.000Z,77.81
2022-09-11T05:19:30.288Z,77.84
2022-09-11T05:21:57.720Z,77.94
2022-09-11T05:24:25.018Z,77.69
2022-09-11T05:26:52.432Z,77.61
2022-09-11T05:29:19.672Z,77.56
2022-09-11T05:32:01.751Z,77.55
2022-09-11T05:34:29.266Z,77.66
2022-09-11T05:36:57.591Z,77.44
2022-09-11T05:39:27.322Z,77.50
2022-09-11T05:41:58.082Z,77.40
2022-09-11T05:44:31.035Z,77.41
2022-09-11T05:46:59.112Z,77.32
2022-09-11T05:49:26.025Z,77.21
2022-09-11T05:51:52.895Z,77.29
2022-09-11T05:54:19.821Z,77.32
2022-09-11T05:56:47.662Z,77.51
2022-09-11T05:59:21.191Z,77.43
2022-09-11T06:01:50.479Z,77.34
2022-09-11T06:04:31.744Z,77.49
2022-09-11T06:06:59.760Z,77.44
2022-09-11T06:09:28.204Z,77.44
2022-09-11T06:11:55.021Z,77.65
2022-09-11T06:14:22.082Z,77.62
2022-09-11T06:16:50.740Z,77.62
2022-09-11T06:19:17.811Z,77.68
2022-09-11T06:21:45.857Z,77.69
2022-09-11T06:24:27.231Z,77.71
2022-09-11T06:26:56.188Z,77.81
2022-09-11T06:29:24.541Z,77.95
2022-09-11T06:31:51.583Z,78.01
2022-09-11T06:34:22.355Z,78.03
2022-09-11T06:36:52.307Z,78.00
2022-09-11T06:39:20.533Z,78.06
2022-09-11T06:41:47.496Z,78.14
2022-09-11T06:44:15.403Z,78.00
2022-09-11T06:46:42.781Z,78.17
2022-09-11T06:49:10.780Z,78.34
2022-09-11T06:51:57.499Z,78.27
2022-09-11T06:54:25.212Z,78.34
2022-09-11T06:56:53.068Z,78.32
2022-09-11T06:59:23.801Z,78.50
2022-09-11T07:01:51.792Z,78.54
2022-09-11T07:04:18.826Z,78.69
2022-09-11T07:06:48.160Z,78.80
2022-09-11T07:09:15.988Z,78.67
2022-09-11T07:11:48.905Z,78.77
2022-09-11T07:14:21.359Z,78.87
2022-09-11T07:16:55.986Z,79.01
2022-09-11T07:19:25.455Z,78.92
2022-09-11T07:21:52.301Z,79.01
2022-09-11T07:24:20.686Z,79.40
2022-09-11T07:26:49.148Z,79.34
2022-09-11T07:29:28.966Z,79.41
2022-09-11T07:31:58.637Z,79.34
2022-09-11T07:34:26.731Z,79.40
2022-09-11T07:36:54.136Z,79.60
2022-09-11T07:39:24.046Z,79.82
2022-09-11T07:41:59.497Z,79.87
2022-09-11T07:44:29.666Z,79.88
2022-09-11T07:46:57.340Z,79.91
2022-09-11T07:49:24.505Z,80.14
2022-09-11T07:51:52.430Z,80.08
2022-09-11T07:54:29.165Z,80.33
2022-09-11T07:56:57.991Z,80.23
2022-09-11T07:59:24.936Z,80.17
2022-09-11T08:01:53.255Z,80.37
2022-09-11T08:04:20.844Z,80.43
2022-09-11T08:06:48.019Z,80.55
2022-09-11T08:09:20.846Z,80.59
2022-09-11T08:11:53.420Z,80.67
2022-09-11T08:14:20.575Z,80.98
2022-09-11T08:16:49.260Z,80.94
2022-09-11T08:19:20.172Z,81.05
2022-09-11T08:21:51.503Z,81.14
2022-09-11T08:24:20.370Z,80.88
2022-09-11T08:26:50.698Z,81.01
2022-09-11T08:29:19.103Z,81.17
2022-09-11T08:31:47.231Z,81.02
2022-09-11T08:34:15.434Z,81.50
2022-09-11T08:36:42.228Z,81.93
2022-09-11T08:39:09.894Z,81.92
2022-09-11T08:41:50.118Z,82.10
2022-09-11T08:44:24.808Z,82.13
2022-09-11T08:47:12.816Z,82.34
2022-09-11T08:49:47.173Z,82.55
2022-09-11T08:52:16.825Z,82.73
2022-09-11T08:54:47.546Z,82.82
2022-09-11T08:57:53.314Z,82.87
2022-09-11T09:00:53.202Z,83.01
2022-09-11T09:03:37.255Z,83.02
2022-09-11T09:06:34.013Z,82.91
2022-09-11T09:09:20.049Z,82.94
2022-09-11T09:12:05.472Z,82.93
2022-09-11T09:14:44.761Z,83.05
2022-09-11T09:17:22.221Z,83.44
2022-09-11T09:20:11.313Z,83.52
2022-09-11T09:22:54.592Z,83.56
2022-09-11T09:25:23.859Z,83.39
2022-09-11T09:28:03.847Z,83.82
2022-09-11T09:30:48.038Z,84.07
2022-09-11T09:33:15.757Z,87.08
2022-09-11T09:35:44.709Z,86.16
2022-09-11T09:38:21.861Z,85.93
2022-09-11T09:41:18.356Z,85.68
2022-09-11T09:43:48.404Z,85.42
2022-09-11T09:46:34.235Z,85.09
2022-09-11T09:49:01.385Z,84.66
2022-09-11T09:51:28.369Z,84.37
2022-09-11T09:53:58.849Z,84.27
2022-09-11T09:56:26.518Z,84.28
2022-09-11T09:59:22.619Z,84.45
2022-09-11T10:01:50.833Z,84.49
2022-09-11T10:04:29.322Z,84.53
2022-09-11T10:07:06.563Z,84.35
2022-09-11T10:09:33.555Z,84.19
2022-09-11T10:12:12.890Z,84.30
2022-09-11T10:14:59.518Z,84.11
2022-09-11T10:17:32.424Z,84.51
2022-09-11T10:20:23.448Z,84.42
2022-09-11T10:22:51.477Z,84.07
2022-09-11T10:25:30.008Z,83.94
2022-09-11T10:28:10.572Z,83.97
2022-09-11T10:30:46.055Z,83.99
2022-09-11T10:33:26.356Z,84.11
2022-09-11T10:35:58.800Z,84.32
2022-09-11T10:38:44.963Z,84.10
2022-09-11T10:41:18.777Z,84.21
2022-09-11T10:43:45.584Z,84.70
2022-09-11T10:46:18.343Z,84.41
2022-09-11T10:49:19.196Z,84.54
2022-09-11T10:52:09.080Z,84.41
2022-09-11T10:54:58.513Z,84.50
2022-09-11T10:57:38.941Z,84.16
2022-09-11T11:00:22.186Z,84.44
2022-09-11T11:02:57.689Z,84.50
2022-09-11T11:05:45.873Z,84.39
2022-09-11T11:08:36.738Z,84.80
2022-09-11T11:11:33.792Z,84.93
2022-09-11T11:14:25.859Z,84.93
2022-09-11T11:16:52.661Z,84.68
2022-09-11T11:19:35.161Z,85.10
2022-09-11T11:22:13.555Z,85.34
2022-09-11T11:24:48.978Z,85.09
2022-09-11T11:27:49.311Z,84.85
2022-09-11T11:30:19.441Z,85.15
2022-09-11T11:33:04.018Z,85.00
2022-09-11T11:35:35.040Z,85.32
2022-09-11T11:38:32.816Z,85.25
2022-09-11T11:41:12.164Z,84.98
2022-09-11T11:43:42.528Z,85.50
2022-09-11T11:46:15.706Z,85.14
2022-09-11T11:49:03.750Z,85.49
2022-09-11T11:51:48.319Z,85.64
2022-09-11T11:54:35.621Z,82.31
2022-09-11T11:57:11.343Z,84.19
2022-09-11T11:59:59.436Z,84.92
2022-09-11T12:02:39.226Z,85.22
2022-09-11T12:05:15.640Z,85.38
2022-09-11T12:07:42.579Z,85.61
2022-09-11T12:10:22.231Z,85.37
2022-09-11T12:12:55.469Z,85.18
2022-09-11T12:15:25.464Z,85.35
2022-09-11T12:18:27.137Z,84.97
2022-09-11T12:21:24.628Z,84.91
2022-09-11T12:23:51.549Z,85.03
2022-09-11T12:26:30.589Z,85.10
2022-09-11T12:29:29.652Z,85.13
2022-09-11T12:31:59.235Z,85.25
2022-09-11T12:34:55.167Z,84.58
2022-09-11T12:37:32.169Z,84.35
2022-09-11T12:40:43.478Z,85.54
2022-09-11T12:43:28.453Z,85.32
2022-09-11T12:45:56.970Z,85.15
2022-09-11T12:48:37.234Z,84.77
2022-09-11T12:51:05.948Z,85.48
2022-09-11T12:53:36.001Z,85.36
2022-09-11T12:56:06.363Z,85.32
2022-09-11T12:58:39.826Z,84.93
2022-09-11T13:01:15.872Z,85.48
2022-09-11T13:03:56.757Z,85.64
2022-09-11T13:06:25.837Z,85.50
2022-09-11T13:08:59.786Z,85.40
2022-09-11T13:11:43.348Z,85.44
2022-09-11T13:14:28.797Z,86.45
2022-09-11T13:16:57.759Z,86.33
2022-09-11T13:19:32.924Z,85.45
2022-09-11T13:22:00.200Z,86.75
2022-09-11T13:24:31.958Z,87.32
2022-09-11T13:27:14.029Z,87.92
2022-09-11T13:29:42.914Z,86.54
2022-09-11T13:32:17.578Z,87.37
2022-09-11T13:34:47.603Z,86.94
2022-09-11T13:37:46.924Z,87.11
2022-09-11T13:40:29.502Z,86.49
2022-09-11T13:42:56.887Z,85.87
2022-09-11T13:45:24.468Z,86.18
2022-09-11T13:47:54.740Z,86.79
2022-09-11T13:50:23.473Z,87.01
2022-09-11T13:52:53.363Z,86.93
2022-09-11T13:55:27.170Z,86.66
2022-09-11T13:58:02.017Z,86.54
2022-09-11T14:00:45.600Z,86.83
2022-09-11T14:03:21.061Z,86.20
2022-09-11T14:05:54.074Z,86.47
2022-09-11T14:08:37.921Z,86.78
2022-09-11T14:11:13.367Z,86.56
2022-09-11T14:13:58.190Z,86.56
2022-09-11T14:16:31.484Z,86.81
2022-09-11T14:19:13.349Z,86.90
2022-09-11T14:21:45.424Z,87.88
2022-09-11T14:24:27.894Z,87.86
2022-09-11T14:26:58.649Z,87.08
2022-09-11T14:29:31.701Z,86.96
2022-09-11T14:32:27.858Z,86.54
2022-09-11T14:34:54.803Z,86.80
2022-09-11T14:37:22.775Z,87.23
2022-09-11T14:39:56.819Z,86.69
2022-09-11T14:42:27.529Z,86.43
2022-09-11T14:44:54.889Z,86.93
2022-09-11T14:47:29.358Z,87.32
2022-09-11T14:49:57.586Z,86.91
2022-09-11T14:52:26.869Z,87.26
2022-09-11T14:54:54.128Z,86.59
2022-09-11T14:57:23.938Z,86.78
2022-09-11T14:59:52.440Z,86.50
2022-09-11T15:02:29.159Z,87.44
2022-09-11T15:04:57.727Z,87.16
2022-09-11T15:07:25.302Z,87.43
2022-09-11T15:09:53.536Z,86.86
2022-09-11T15:12:21.787Z,86.98
2022-09-11T15:14:57.043Z,87.35
2022-09-11T15:17:25.647Z,87.16
2022-09-11T15:19:53.535Z,86.83
2022-09-11T15:22:20.475Z,86.78
2022-09-11T15:24:49.788Z,86.90
2022-09-11T15:27:19.159Z,87.17
2022-09-11T15:29:46.235Z,86.71
2022-09-11T15:32:14.480Z,86.66
2022-09-11T15:34:42.083Z,87.14
2022-09-11T15:37:08.945Z,86.99
2022-09-11T15:39:35.915Z,86.96
2022-09-11T15:42:03.345Z,86.41
2022-09-11T15:44:30.165Z,86.69
2022-09-11T15:46:58.791Z,86.51
2022-09-11T15:49:30.073Z,86.63
2022-09-11T15:51:58.036Z,86.85
2022-09-11T15:54:25.530Z,86.67
2022-09-11T15:56:52.984Z,86.62
2022-09-11T15:59:20.212Z,86.80
2022-09-11T16:01:47.215Z,87.25
2022-09-11T16:04:21.987Z,87.11
2022-09-11T16:06:49.597Z,87.15
2022-09-11T16:09:20.115Z,87.15
2022-09-11T16:11:48.957Z,86.95
2022-09-11T16:14:16.961Z,87.29
2022-09-11T16:16:47.043Z,87.01
2022-09-11T16:19:19.048Z,87.38
2022-09-11T16:21:46.208Z,87.15
2022-09-11T16:24:15.482Z,87.36
2022-09-11T16:26:44.151Z,87.37
2022-09-11T16:29:15.427Z,87.59
2022-09-11T16:31:42.886Z,87.38
2022-09-11T16:34:10.984Z,87.33
2022-09-11T16:36:41.886Z,87.72
2022-09-11T16:39:12.196Z,87.53
2022-09-11T16:41:39.352Z,87.67
2022-09-11T16:44:08.787Z,87.59
2022-09-11T16:46:36.294Z,87.91
2022-09-11T16:49:03.606Z,87.56
2022-09-11T16:51:30.722Z,87.44
2022-09-11T16:53:57.814Z,87.73
2022-09-11T16:56:25.938Z,87.51
2022-09-11T16:58:54.318Z,87.59
2022-09-11T17:01:24.277Z,87.71
2022-09-11T17:03:53.376Z,87.73
2022-09-11T17:06:21.524Z,87.89
2022-09-11T17:08:50.948Z,88.12
2022-09-11T17:11:20.139Z,87.87
2022-09-11T17:13:47.625Z,87.58
2022-09-11T17:16:17.156Z,87.84
2022-09-11T17:18:51.622Z,87.86
2022-09-11T17:21:18.511Z,88.15
2022-09-11T17:23:45.448Z,88.09
2022-09-11T17:26:14.072Z,88.23
2022-09-11T17:28:42.369Z,88.35
2022-09-11T17:31:11.388Z,88.53
2022-09-11T17:33:40.349Z,88.60
2022-09-11T17:36:10.147Z,88.57
2022-09-11T17:38:38.352Z,88.58
2022-09-11T17:41:06.892Z,88.36
2022-09-11T17:43:34.674Z,88.20
2022-09-11T17:46:12.654Z,88.37
2022-09-11T17:48:40.227Z,88.59
2022-09-11T17:51:20.179Z,88.73
2022-09-11T17:53:49.958Z,88.33
2022-09-11T17:56:19.800Z,88.45
2022-09-11T17:58:51.219Z,88.48
2022-09-11T18:01:18.582Z,88.64
2022-09-11T18:03:53.657Z,88.57
2022-09-11T18:06:25.429Z,88.49
2022-09-11T18:08:53.087Z,88.44
2022-09-11T18:11:20.008Z,88.70
2022-09-11T18:13:46.882Z,88.62
2022-09-11T18:16:13.675Z,88.44
2022-09-11T18:18:40.636Z,88.50
2022-09-11T18:21:09.427Z,88.64
2022-09-11T18:23:42.461Z,88.57
2022-09-11T18:26:19.817Z,88.64
2022-09-11T18:28:49.256Z,88.61
2022-09-11T18:31:16.974Z,88.68
2022-09-11T18:33:43.931Z,88.67
2022-09-11T18:36:13.468Z,88.64
2022-09-11T18:38:40.537Z,88.60
2022-09-11T18:41:07.368Z,88.44
2022-09-11T18:43:34.289Z,88.45
2022-09-11T18:46:03.593Z,88.49
2022-09-11T18:48:30.497Z,88.51
2022-09-11T18:51:00.025Z,88.48
2022-09-11T18:53:27.138Z,88.44
2022-09-11T18:56:02.175Z,88.55
2022-09-11T18:58:33.248Z,88.63
2022-09-11T19:01:05.413Z,88.62
2022-09-11T19:03:32.433Z,88.65
2022-09-11T19:06:10.756Z,88.67
2022-09-11T19:08:39.312Z,88.72
2022-09-11T19:11:12.214Z,88.65
2022-09-11T19:13:39.711Z,88.64
2022-09-11T19:16:07.044Z,88.70
2022-09-11T19:18:35.377Z,88.59
2022-09-11T19:21:04.628Z,88.55
2022-09-11T19:23:33.990Z,88.66
2022-09-11T19:26:05.152Z,88.66
2022-09-11T19:28:35.661Z,88.62
2022-09-11T19:31:03.345Z,88.60
2022-09-11T19:33:30.643Z,88.60
2022-09-11T19:36:00.320Z,88.73
2022-09-11T19:38:27.425Z,88.80
2022-09-11T19:40:54.208Z,88.65
2022-09-11T19:43:23.609Z,88.47
2022-09-11T19:46:01.944Z,88.48
2022-09-11T19:48:30.088Z,88.47
2022-09-11T19:50:56.865Z,88.47
2022-09-11T19:53:27.177Z,88.68
2022-09-11T19:55:56.089Z,88.73
2022-09-11T19:58:24.130Z,88.64
2022-09-11T20:00:51.794Z,88.76
2022-09-11T20:03:19.102Z,88.57
2022-09-11T20:05:46.139Z,88.56
2022-09-11T20:08:16.210Z,88.68
2022-09-11T20:10:46.684Z,88.67
2022-09-11T20:13:13.562Z,88.61
2022-09-11T20:15:41.245Z,88.64
2022-09-11T20:18:08.618Z,88.60
2022-09-11T20:20:36.269Z,88.63
2022-09-11T20:23:04.427Z,88.64
2022-09-11T20:25:31.508Z,88.72
2022-09-11T20:28:01.473Z,88.54
2022-09-11T20:30:32.647Z,88.62
2022-09-11T20:33:00.659Z,88.64
2022-09-11T20:35:27.554Z,88.57
2022-09-11T20:37:54.832Z,88.60
2022-09-11T20:40:21.623Z,88.73
2022-09-11T20:42:48.475Z,88.60
2022-09-11T20:45:15.386Z,88.62
2022-09-11T20:47:42.276Z,88.72
2022-09-11T20:50:09.801Z,88.82
2022-09-11T20:52:39.491Z,88.96
2022-09-11T20:55:07.504Z,89.09
2022-09-11T20:57:34.313Z,89.06
2022-09-11T21:00:01.261Z,89.05
2022-09-11T21:02:28.260Z,89.03
2022-09-11T21:04:55.093Z,89.18
2022-09-11T21:07:21.916Z,89.03
2022-09-11T21:09:48.707Z,89.06
2022-09-11T21:12:15.477Z,89.12
2022-09-11T21:14:43.272Z,89.25
2022-09-11T21:17:10.096Z,89.22
2022-09-11T21:19:37.151Z,89.22
2022-09-11T21:22:03.979Z,89.14
2022-09-11T21:24:30.847Z,89.23
2022-09-11T21:26:57.614Z,89.30
2022-09-11T21:29:24.477Z,89.20
2022-09-11T21:31:52.451Z,89.27
2022-09-11T21:34:19.344Z,89.36
2022-09-11T21:36:46.202Z,89.32
2022-09-11T21:39:13.130Z,89.37
2022-09-11T21:41:39.883Z,89.17
2022-09-11T21:44:06.858Z,89.30
2022-09-11T21:46:34.505Z,89.28
2022-09-11T21:49:01.829Z,89.23
2022-09-11T21:51:28.729Z,89.28
2022-09-11T21:53:58.968Z,89.31
2022-09-11T21:56:30.255Z,89.28
2022-09-11T21:58:57.823Z,89.15
2022-09-11T22:01:26.491Z,89.21
2022-09-11T22:03:55.076Z,89.12
2022-09-11T22:06:23.746Z,89.18
2022-09-11T22:08:51.109Z,89.28
2022-09-11T22:11:18.352Z,89.15
2022-09-11T22:13:46.810Z,89.12
2022-09-11T22:16:16.593Z,89.18
2022-09-11T22:18:46.646Z,89.18
2022-09-11T22:21:13.781Z,89.28
2022-09-11T22:23:40.642Z,89.44
2022-09-11T22:26:19.483Z,89.55
2022-09-11T22:28:46.743Z,89.52
2022-09-11T22:31:22.425Z,89.50
2022-09-11T22:33:49.877Z,89.36
2022-09-11T22:36:23.609Z,89.25
2022-09-11T22:38:50.860Z,89.42
2022-09-11T22:41:18.243Z,89.21
2022-09-11T22:43:47.468Z,89.16
2022-09-11T22:46:14.809Z,89.13
2022-09-11T22:48:42.353Z,88.97
2022-09-11T22:51:09.614Z,89.01
2022-09-11T22:53:39.454Z,89.01
2022-09-11T22:56:07.194Z,89.14
2022-09-11T22:58:34.077Z,89.12
2022-09-11T23:01:03.518Z,89.09
2022-09-11T23:03:30.631Z,89.11
2022-09-11T23:06:17.299Z,88.92
2022-09-11T23:08:46.050Z,89.13
2022-09-11T23:11:17.531Z,89.14
2022-09-11T23:13:44.735Z,89.03
2022-09-11T23:16:23.426Z,89.02
2022-09-11T23:19:05.707Z,89.03
2022-09-11T23:21:34.668Z,89.04
2022-09-11T23:24:02.479Z,89.18
2022-09-11T23:26:29.840Z,89.24
2022-09-11T23:28:57.020Z,89.21
2022-09-11T23:31:30.197Z,89.12
2022-09-11T23:34:00.305Z,89.18
2022-09-11T23:36:28.840Z,89.39
2022-09-11T23:38:55.847Z,89.09
2022-09-11T23:41:23.271Z,89.06
2022-09-11T23:43:50.204Z,89.17
2022-09-11T23:46:17.320Z,89.12
2022-09-11T23:48:44.236Z,89.08
2022-09-11T23:51:12.283Z,89.23
2022-09-11T23:53:40.626Z,89.11
2022-09-11T23:56:07.796Z,89.13
2022-09-11T23:58:39.291Z,89.16
